METAR Data
IDs: Format: Raw Decoded Include TAF

Data at: 1201 UTC 16 Jul 2019

NZWN 161130Z AUTO 33015KT 300V360 9999 FEW028/// 12/06 Q0988 TEMPO 4000 RA
NZWN 161100Z AUTO 33017G27KT 9999 NCD 12/05 Q0988 NOSIG
NZWN 161030Z AUTO 34015G26KT 9999 NCD 12/06 Q0988 NOSIG
NZWN 161000Z AUTO 34014KT 310V010 9999 NCD 12/06 Q0989 NOSIG
NZWN 160930Z AUTO 33013G23KT 290V360 9999 NCD 12/06 Q0989 NOSIG

TAF NZWN 161100Z 1612/1712 35020G30KT 9999 -SHRA BKN025
  TEMPO 1612/1618 4000 RA FEW020TCU
  BECMG 1622/1700 33015KT
  BECMG 1708/1710 20010KT
  TEMPO 1708/1711 6000 SHRA